Time;durP1;ratioP1;P1;durP2;ratioP2;P2;SDS_P1;SDS_P2;PMS_P1;PMS_P2;Temp;Humidity;BMP_temperature;BMP_pressure;BME280_temperature;BME280_humidity;BME280_pressure;Samples;Min_cycle;Max_cycle;Signal;HPM_P1;HPM_P2
2023/09/21 00:00:41;;;;;;;;;;;;;;;21.70;66.19;97141.35;586701;242;66341;-69
2023/09/21 00:03:09;;;;;;;;;;;;;;;21.70;66.19;97136.00;586684;242;68347;-68
2023/09/21 00:05:45;;;;;;;;;;;;;;;21.70;66.19;97138.67;586652;242;65136;-68
2023/09/21 00:08:06;;;;;;;;;;;;;;;21.71;66.17;97136.80;586351;241;68593;-69
2023/09/21 00:10:34;;;;;;;;;;;;;;;21.70;66.17;97133.33;586601;242;69015;-68
2023/09/21 00:13:04;;;;;;;;;;;;;;;21.70;66.16;97133.33;586700;242;65240;-68
2023/09/21 00:15:31;;;;;;;;;;;;;;;21.70;66.18;97136.00;586661;242;68607;-69
2023/09/21 00:17:59;;;;;;;;;;;;;;;21.70;66.15;97145.91;586629;242;68744;-69
2023/09/21 00:20:36;;;;;;;;;;;;;;;21.69;66.15;97139.77;586653;242;62738;-69
2023/09/21 00:23:05;;;;;;;;;;;;;;;21.69;66.16;97139.77;586523;241;68851;-69
2023/09/21 00:25:32;;;;;;;;;;;;;;;21.70;66.15;97141.35;586665;240;68764;-69
2023/09/21 00:28:00;;;;;;;;;;;;;;;21.69;66.10;97144.31;586679;242;62739;-68
2023/09/21 00:30:27;;;;;;;;;;;;;;;21.69;66.11;97137.09;586644;242;68596;-68
2023/09/21 00:32:55;;;;;;;;;;;;;;;21.68;66.09;97132.79;590995;239;66625;-68
2023/09/21 00:35:23;;;;;;;;;;;;;;;21.69;66.05;97133.62;591308;240;65105;-68
2023/09/21 00:37:50;;;;;;;;;;;;;;;21.68;66.06;97132.79;591411;240;69090;-66
2023/09/21 00:40:20;;;;;;;;;;;;;;;21.68;66.06;97127.44;591361;240;68949;-66
2023/09/21 00:42:48;;;;;;;;;;;;;;;21.69;66.02;97128.27;591360;240;63126;-66
2023/09/21 00:45:15;;;;;;;;;;;;;;;21.69;66.00;97125.59;591335;240;68794;-66
2023/09/21 00:47:45;;;;;;;;;;;;;;;21.68;65.95;97123.97;591336;240;69032;-66
2023/09/21 00:50:13;;;;;;;;;;;;;;;21.68;65.93;97124.77;591379;240;66048;-66
2023/09/21 00:52:42;;;;;;;;;;;;;;;21.68;65.93;97138.14;591420;240;66068;-68
2023/09/21 00:55:11;;;;;;;;;;;;;;;21.68;65.93;97123.97;591345;240;66422;-68
2023/09/21 00:57:40;;;;;;;;;;;;;;;21.68;65.87;97118.63;591363;240;63817;-66
2023/09/21 01:00:16;;;;;;;;;;;;;;;21.67;65.85;97117.83;591319;240;68532;-66
2023/09/21 01:02:49;;;;;;;;;;;;;;;21.67;65.83;97111.69;591252;240;68557;-66
2023/09/21 01:05:16;;;;;;;;;;;;;;;21.67;65.83;97115.16;591430;240;62645;-66
2023/09/21 01:07:43;;;;;;;;;;;;;;;21.68;65.79;97113.27;591380;240;65827;-66
2023/09/21 01:10:14;;;;;;;;;;;;;;;21.67;65.77;97115.16;591365;240;66326;-66
2023/09/21 01:12:44;;;;;;;;;;;;;;;21.67;65.76;97115.16;591340;240;65309;-66
2023/09/21 01:15:11;;;;;;;;;;;;;;;21.67;65.71;97119.70;591365;240;68348;-66
2023/09/21 01:17:42;;;;;;;;;;;;;;;21.67;65.70;97120.50;591369;240;66538;-66
2023/09/21 01:20:23;;;;;;;;;;;;;;;21.67;65.70;97111.69;591388;240;65109;-66
2023/09/21 01:22:52;;;;;;;;;;;;;;;21.66;65.64;97110.89;591354;240;66510;-66
2023/09/21 01:25:19;;;;;;;;;;;;;;;21.66;65.64;97113.56;588969;240;69234;-66
2023/09/21 01:27:51;;;;;;;;;;;;;;;21.66;65.63;97121.59;591348;240;65246;-66
2023/09/21 01:30:16;;;;;;;;;;;;;;;21.66;65.63;97118.09;591275;240;69616;-66
2023/09/21 01:32:45;;;;;;;;;;;;;;;21.66;65.61;97123.44;587425;239;68669;-66
2023/09/21 01:35:13;;;;;;;;;;;;;;;21.66;65.63;97107.39;586757;242;67755;-66
2023/09/21 01:37:41;;;;;;;;;;;;;;;21.66;65.66;97110.89;586690;242;68792;-66
2023/09/21 01:40:14;;;;;;;;;;;;;;;21.66;65.75;97110.89;586717;242;69470;-66
2023/09/21 01:42:38;;;;;;;;;;;;;;;21.66;65.74;97107.39;586575;242;65151;-66
2023/09/21 01:45:13;;;;;;;;;;;;;;;21.66;65.71;97107.39;586737;242;68418;-66
2023/09/21 01:47:36;;;;;;;;;;;;;;;21.66;65.78;97102.04;586523;242;68726;-67
2023/09/21 01:50:11;;;;;;;;;;;;;;;21.65;65.87;97097.78;586688;242;65104;-67
2023/09/21 01:52:35;;;;;;;;;;;;;;;21.65;66.13;97098.57;586665;239;68609;-69
2023/09/21 01:55:10;;;;;;;;;;;;;;;21.65;66.12;97100.45;586710;242;69422;-66
2023/09/21 01:57:33;;;;;;;;;;;;;;;21.65;66.56;97090.55;586564;241;63042;-67
2023/09/21 02:00:12;;;;;;;;;;;;;;;21.63;66.46;97090.02;586782;242;68772;-67
2023/09/21 02:02:34;;;;;;;;;;;;;;;21.64;66.61;97093.52;586181;242;45790;-67
2023/09/21 02:05:03;;;;;;;;;;;;;;;21.65;66.87;97095.89;586723;242;62737;-67
2023/09/21 02:07:31;;;;;;;;;;;;;;;21.64;66.76;97088.95;586759;242;68904;-67
2023/09/21 02:09:59;;;;;;;;;;;;;;;21.64;66.88;97088.16;586738;242;66352;-67
2023/09/21 02:12:26;;;;;;;;;;;;;;;21.63;67.16;97090.02;586729;242;63729;-67
2023/09/21 02:14:54;;;;;;;;;;;;;;;21.63;66.17;97081.20;586767;242;68958;-67
2023/09/21 02:17:24;;;;;;;;;;;;;;;21.63;66.11;97087.34;586722;242;68631;-67
2023/09/21 02:19:51;;;;;;;;;;;;;;;21.63;66.04;97084.66;586743;242;64885;-67
2023/09/21 02:22:20;;;;;;;;;;;;;;;21.63;66.83;97081.98;586697;242;68945;-67
2023/09/21 02:24:48;;;;;;;;;;;;;;;21.62;66.22;97080.40;586736;242;66482;-67
2023/09/21 02:27:16;;;;;;;;;;;;;;;21.63;65.60;97079.31;579807;241;64704;-69
2023/09/21 02:29:43;;;;;;;;;;;;;;;21.63;66.00;97084.66;586713;242;68749;-69
2023/09/21 02:32:11;;;;;;;;;;;;;;;21.63;66.11;97081.98;589601;239;68463;-69
2023/09/21 02:34:39;;;;;;;;;;;;;;;21.63;66.38;97081.20;591352;240;62729;-69
2023/09/21 02:37:07;;;;;;;;;;;;;;;21.62;66.27;97075.05;591329;240;68998;-69
2023/09/21 02:39:34;;;;;;;;;;;;;;;21.63;65.65;97073.17;591374;240;68921;-67
2023/09/21 02:42:03;;;;;;;;;;;;;;;21.63;66.41;97081.20;591329;240;63076;-67
2023/09/21 02:44:31;;;;;;;;;;;;;;;21.63;67.06;97081.20;591299;240;66626;-67
2023/09/21 02:46:59;;;;;;;;;;;;;;;21.63;66.18;97073.17;591354;240;68650;-67
2023/09/21 02:49:30;;;;;;;;;;;;;;;21.63;65.66;97078.52;591327;240;63838;-67
2023/09/21 02:51:56;;;;;;;;;;;;;;;21.63;66.55;97081.20;591315;240;66554;-67
2023/09/21 02:54:28;;;;;;;;;;;;;;;21.62;66.46;97079.60;591356;240;68749;-67
2023/09/21 02:56:53;;;;;;;;;;;;;;;21.62;66.47;97079.60;591254;240;65726;-67
2023/09/21 02:59:22;;;;;;;;;;;;;;;21.62;65.89;97072.38;591335;240;68960;-68
2023/09/21 03:01:50;;;;;;;;;;;;;;;21.62;65.69;97079.60;591304;240;66458;-67
2023/09/21 03:04:18;;;;;;;;;;;;;;;21.61;66.11;97070.78;591307;240;63803;-67
2023/09/21 03:06:46;;;;;;;;;;;;;;;21.62;66.29;97083.08;591405;240;69041;-67
2023/09/21 03:09:14;;;;;;;;;;;;;;;21.61;66.01;97083.36;591316;240;68683;-67
2023/09/21 03:11:42;;;;;;;;;;;;;;;21.62;65.79;97074.25;591351;240;62670;-67
2023/09/21 03:14:10;;;;;;;;;;;;;;;21.61;66.34;97065.44;591377;240;66701;-67
2023/09/21 03:16:42;;;;;;;;;;;;;;;21.61;66.75;97060.09;591355;240;68895;-67
2023/09/21 03:19:08;;;;;;;;;;;;;;;21.61;66.47;97068.11;591265;240;64873;-67
2023/09/21 03:21:35;;;;;;;;;;;;;;;21.61;66.26;97070.78;591380;240;68774;-67
2023/09/21 03:24:03;;;;;;;;;;;;;;;21.61;66.78;97067.31;591337;240;68814;-67
2023/09/21 03:26:30;;;;;;;;;;;;;;;21.60;66.73;97057.67;591357;240;63845;-69
2023/09/21 03:28:58;;;;;;;;;;;;;;;21.61;66.36;97068.11;591353;240;68966;-69
2023/09/21 03:31:26;;;;;;;;;;;;;;;21.61;65.56;97069.98;591369;239;69245;-69
2023/09/21 03:33:55;;;;;;;;;;;;;;;21.62;66.41;97063.56;591363;240;63733;-69
2023/09/21 03:36:22;;;;;;;;;;;;;;;21.61;66.10;97067.31;591316;240;69113;-69
2023/09/21 03:38:50;;;;;;;;;;;;;;;21.61;66.54;97068.11;591379;240;68803;-69
2023/09/21 03:41:17;;;;;;;;;;;;;;;21.60;66.45;97063.02;591350;240;63921;-69
2023/09/21 03:43:45;;;;;;;;;;;;;;;21.59;66.04;97056.09;591415;240;68850;-69
2023/09/21 03:46:12;;;;;;;;;;;;;;;21.59;65.62;97056.88;591440;240;66156;-69
2023/09/21 03:48:40;;;;;;;;;;;;;;;21.59;65.96;97046.19;591340;240;65085;-69
2023/09/21 03:51:08;;;;;;;;;;;;;;;21.59;66.30;97054.20;591346;240;65691;-69
2023/09/21 03:53:35;;;;;;;;;;;;;;;21.59;66.73;97046.19;591333;240;69264;-69
2023/09/21 03:56:03;;;;;;;;;;;;;;;21.58;65.77;97047.27;591345;240;65061;-69
2023/09/21 03:58:30;;;;;;;;;;;;;;;21.59;65.35;97050.73;591411;240;68842;-69
2023/09/21 04:01:04;;;;;;;;;;;;;;;21.60;65.36;97055.80;591362;240;68653;-69
2023/09/21 04:03:29;;;;;;;;;;;;;;;21.59;65.37;97058.76;591129;240;65050;-69
2023/09/21 04:06:06;;;;;;;;;;;;;;;21.59;65.44;97051.53;591383;240;47478;-69
2023/09/21 04:08:34;;;;;;;;;;;;;;;21.59;65.24;97058.76;591339;240;68783;-70
2023/09/21 04:11:01;;;;;;;;;;;;;;;21.58;65.46;97054.47;591401;240;64908;-70
2023/09/21 04:13:29;;;;;;;;;;;;;;;21.59;65.26;97061.44;591358;240;66233;-70
2023/09/21 04:15:56;;;;;;;;;;;;;;;21.59;66.01;97064.11;591303;240;68579;-70
2023/09/21 04:18:24;;;;;;;;;;;;;;;21.58;65.56;97067.84;591312;240;62762;-70
2023/09/21 04:20:52;;;;;;;;;;;;;;;21.59;65.40;97074.80;591336;240;68861;-70
2023/09/21 04:23:21;;;;;;;;;;;;;;;21.59;65.37;97077.48;591363;240;66089;-70
2023/09/21 04:25:48;;;;;;;;;;;;;;;21.58;65.47;97075.86;591409;240;65154;-70
2023/09/21 04:28:16;;;;;;;;;;;;;;;21.58;66.23;97074.01;591358;240;66360;-70
2023/09/21 04:30:43;;;;;;;;;;;;;;;21.58;65.83;97075.86;591181;239;66528;-69
2023/09/21 04:33:11;;;;;;;;;;;;;;;21.58;66.32;97078.53;586657;242;65226;-70
2023/09/21 04:35:38;;;;;;;;;;;;;;;21.58;65.46;97078.53;586685;242;68779;-70
2023/09/21 04:38:08;;;;;;;;;;;;;;;21.58;65.44;97075.86;586705;242;66373;-70
2023/09/21 04:40:35;;;;;;;;;;;;;;;21.58;65.55;97078.53;586651;242;62702;-70
2023/09/21 04:43:03;;;;;;;;;;;;;;;21.58;65.71;97078.53;586600;242;69248;-70
2023/09/21 04:45:32;;;;;;;;;;;;;;;21.58;66.75;97081.20;586631;242;66353;-70
2023/09/21 04:48:03;;;;;;;;;;;;;;;21.56;66.59;97076.15;586651;242;65020;-70
2023/09/21 04:50:31;;;;;;;;;;;;;;;21.56;66.26;97078.03;586689;241;46424;-70
2023/09/21 04:52:59;;;;;;;;;;;;;;;21.57;65.38;97082.29;586625;242;68889;-70
2023/09/21 04:55:27;;;;;;;;;;;;;;;21.56;65.11;97075.35;586628;242;63004;-70
2023/09/21 04:57:55;;;;;;;;;;;;;;;21.57;65.10;97084.97;586670;242;66772;-70
2023/09/21 05:00:23;;;;;;;;;;;;;;;21.57;65.04;97076.95;586667;242;65681;-70
2023/09/21 05:02:51;;;;;;;;;;;;;;;21.57;65.08;97076.95;586708;242;65784;-70
2023/09/21 05:05:20;;;;;;;;;;;;;;;21.57;65.12;97064.37;586689;239;46799;-70
2023/09/21 05:07:47;;;;;;;;;;;;;;;21.56;65.13;97060.11;586639;242;68703;-70
2023/09/21 05:10:16;;;;;;;;;;;;;;;21.56;65.20;97062.78;586624;242;65728;-70
2023/09/21 05:12:46;;;;;;;;;;;;;;;21.56;65.89;97064.66;586671;242;68623;-70
2023/09/21 05:15:14;;;;;;;;;;;;;;;21.56;66.85;97062.78;586661;242;68329;-70
2023/09/21 05:17:42;;;;;;;;;;;;;;;21.56;66.87;97064.66;586717;242;62707;-70
2023/09/21 05:20:10;;;;;;;;;;;;;;;21.55;67.47;97057.69;586659;242;68584;-68
2023/09/21 05:22:43;;;;;;;;;;;;;;;21.55;67.40;97057.69;586592;242;66348;-68
2023/09/21 05:25:09;;;;;;;;;;;;;;;21.54;65.66;97051.55;586458;241;63094;-68
2023/09/21 05:27:40;;;;;;;;;;;;;;;21.54;65.31;97056.10;586636;242;68782;-68
2023/09/21 05:30:13;;;;;;;;;;;;;;;21.53;65.10;97057.19;586417;241;49622;-68
2023/09/21 05:32:40;;;;;;;;;;;;;;;21.55;65.15;97052.34;586683;239;64916;-69
2023/09/21 05:35:10;;;;;;;;;;;;;;;21.54;65.14;97051.55;586736;242;69048;-69
2023/09/21 05:37:41;;;;;;;;;;;;;;;21.54;65.39;97046.20;586735;242;69061;-69
2023/09/21 05:40:11;;;;;;;;;;;;;;;21.53;65.37;97047.28;586720;239;65142;-68
2023/09/21 05:42:37;;;;;;;;;;;;;;;21.54;65.04;97050.75;586721;242;68918;-69
2023/09/21 05:45:07;;;;;;;;;;;;;;;21.54;65.04;97050.75;586557;239;50560;-69
2023/09/21 05:47:34;;;;;;;;;;;;;;;21.53;64.99;97049.95;586554;242;65418;-69
2023/09/21 05:50:03;;;;;;;;;;;;;;;21.54;65.09;97056.10;586627;242;69172;-68
2023/09/21 05:52:32;;;;;;;;;;;;;;;21.54;66.77;97048.08;586682;242;68466;-68
2023/09/21 05:55:00;;;;;;;;;;;;;;;21.54;67.67;97053.42;586721;242;62785;-69
2023/09/21 05:57:28;;;;;;;;;;;;;;;21.52;66.14;97048.34;586742;242;68796;-69
2023/09/21 05:59:56;;;;;;;;;;;;;;;21.53;65.58;97049.16;586597;242;70026;-67
2023/09/21 06:02:23;;;;;;;;;;;;;;;21.52;65.31;97053.69;586709;242;62715;-66
2023/09/21 06:04:51;;;;;;;;;;;;;;;21.53;65.16;97049.16;586673;242;68884;-67
2023/09/21 06:07:18;;;;;;;;;;;;;;;21.52;65.05;97045.66;586742;239;66542;-68
2023/09/21 06:09:48;;;;;;;;;;;;;;;21.53;64.92;97047.28;586732;242;63891;-68
2023/09/21 06:12:15;;;;;;;;;;;;;;;21.53;65.12;97049.16;586727;242;68706;-69
2023/09/21 06:14:43;;;;;;;;;;;;;;;21.53;65.22;97043.81;586724;242;66078;-71
2023/09/21 06:17:13;;;;;;;;;;;;;;;21.53;65.08;97049.16;586588;242;62473;-70
2023/09/21 06:19:41;;;;;;;;;;;;;;;21.53;68.72;97049.16;586410;239;50962;-72
2023/09/21 06:22:09;;;;;;;;;;;;;;;21.50;65.25;97051.30;586714;242;69794;-70
2023/09/21 06:24:39;;;;;;;;;;;;;;;21.50;64.96;97056.65;586690;242;64882;-67
2023/09/21 06:27:07;;;;;;;;;;;;;;;21.53;64.99;97059.86;586567;242;69895;-67
2023/09/21 06:29:34;;;;;;;;;;;;;;;21.54;65.48;97056.10;586626;242;69408;-67
2023/09/21 06:32:07;;;;;;;;;;;;;;;21.53;65.45;97049.95;588309;239;65229;-67
2023/09/21 06:34:33;;;;;;;;;;;;;;;21.55;65.72;97042.44;589485;240;69604;-66
2023/09/21 06:37:02;;;;;;;;;;;;;;;21.55;66.52;97046.99;589664;240;68738;-66
2023/09/21 06:39:29;;;;;;;;;;;;;;;21.54;65.88;97048.08;589483;240;62624;-67
2023/09/21 06:41:57;;;;;;;;;;;;;;;21.55;66.55;97049.67;589538;240;66117;-67
2023/09/21 06:44:28;;;;;;;;;;;;;;;21.55;68.28;97044.32;589608;240;68820;-67
2023/09/21 06:46:54;;;;;;;;;;;;;;;21.55;68.12;97046.99;589551;240;65125;-68
2023/09/21 06:49:21;;;;;;;;;;;;;;;21.54;69.38;97053.42;589696;240;69021;-67
2023/09/21 06:51:49;;;;;;;;;;;;;;;21.54;69.25;97048.08;589640;240;66431;-67
2023/09/21 06:54:17;;;;;;;;;;;;;;;21.53;69.79;97055.30;589625;240;65070;-67
2023/09/21 06:56:44;;;;;;;;;;;;;;;21.54;69.84;97058.77;589674;240;66373;-68
2023/09/21 06:59:12;;;;;;;;;;;;;;;21.54;70.26;97048.08;589657;240;68645;-69
2023/09/21 07:01:39;;;;;;;;;;;;;;;21.54;70.35;97050.75;589622;240;64882;-71
2023/09/21 07:04:07;;;;;;;;;;;;;;;21.54;70.00;97050.75;589659;240;68815;-72
2023/09/21 07:06:35;;;;;;;;;;;;;;;21.53;70.01;97039.27;589624;240;68537;-66
2023/09/21 07:09:04;;;;;;;;;;;;;;;21.54;69.91;97045.41;589625;240;65111;-66
2023/09/21 07:11:33;;;;;;;;;;;;;;;21.54;70.10;97048.08;589647;240;68633;-66
2023/09/21 07:14:01;;;;;;;;;;;;;;;21.53;69.52;97052.63;589716;240;68776;-67
2023/09/21 07:16:28;;;;;;;;;;;;;;;21.53;69.51;97060.66;589629;240;64973;-67
2023/09/21 07:18:56;;;;;;;;;;;;;;;21.54;69.65;97056.89;589654;240;66293;-67
2023/09/21 07:21:23;;;;;;;;;;;;;;;21.53;70.04;97057.98;589648;240;68741;-66
2023/09/21 07:23:51;;;;;;;;;;;;;;;21.54;70.01;97058.77;589600;240;64964;-66
2023/09/21 07:26:18;;;;;;;;;;;;;;;21.54;69.74;97050.75;589668;240;68796;-67
2023/09/21 07:28:46;;;;;;;;;;;;;;;21.53;69.74;97054.52;589728;240;66140;-67
2023/09/21 07:31:14;;;;;;;;;;;;;;;21.54;69.77;97053.42;589615;239;63676;-66
2023/09/21 07:33:41;;;;;;;;;;;;;;;21.53;69.61;97054.52;589655;240;66302;-67
2023/09/21 07:36:11;;;;;;;;;;;;;;;21.54;69.59;97056.89;589555;240;66943;-68
2023/09/21 07:38:38;;;;;;;;;;;;;;;21.54;69.60;97050.75;589650;240;62425;-68
2023/09/21 07:41:06;;;;;;;;;;;;;;;21.54;69.67;97056.89;589658;240;68952;-67
2023/09/21 07:43:36;;;;;;;;;;;;;;;21.54;69.75;97056.89;589640;240;66699;-68
2023/09/21 07:46:03;;;;;;;;;;;;;;;21.54;70.08;97054.22;589626;240;66079;-68
2023/09/21 07:48:32;;;;;;;;;;;;;;;21.54;69.92;97054.22;589610;240;69031;-67
2023/09/21 07:51:01;;;;;;;;;;;;;;;21.55;69.99;97044.32;589611;240;66615;-67
2023/09/21 07:53:28;;;;;;;;;;;;;;;21.54;70.12;97051.55;589612;240;64947;-68
2023/09/21 07:56:05;;;;;;;;;;;;;;;21.55;70.12;97049.67;589682;240;66104;-68
2023/09/21 07:58:32;;;;;;;;;;;;;;;21.53;70.06;97049.95;589676;240;67726;-68
2023/09/21 08:01:00;;;;;;;;;;;;;;;21.54;70.12;97046.20;589640;240;65336;-67
2023/09/21 08:03:27;;;;;;;;;;;;;;;21.55;70.28;97052.34;589696;240;66814;-67
2023/09/21 08:05:55;;;;;;;;;;;;;;;21.54;70.23;97048.08;589703;240;66316;-66
2023/09/21 08:08:25;;;;;;;;;;;;;;;21.54;70.33;97043.53;589635;240;63034;-67
2023/09/21 08:10:53;;;;;;;;;;;;;;;21.55;70.16;97041.64;589630;240;68779;-67
2023/09/21 08:13:21;;;;;;;;;;;;;;;21.55;70.20;97039.77;589645;240;66551;-67
2023/09/21 08:15:48;;;;;;;;;;;;;;;21.55;70.45;97044.32;589676;240;62974;-67
2023/09/21 08:18:16;;;;;;;;;;;;;;;21.55;70.44;97041.64;589617;240;66577;-71
2023/09/21 08:20:44;;;;;;;;;;;;;;;21.55;70.36;97039.77;589718;240;68566;-68
2023/09/21 08:23:11;;;;;;;;;;;;;;;21.55;70.38;97036.30;589689;240;65026;-68
2023/09/21 08:25:41;;;;;;;;;;;;;;;21.54;67.42;97040.05;589657;240;68663;-69
2023/09/21 08:28:09;;;;;;;;;;;;;;;21.56;66.52;97043.27;589592;239;66312;-69
2023/09/21 08:30:36;;;;;;;;;;;;;;;21.57;66.19;97042.18;589685;238;62785;-69
2023/09/21 08:33:07;;;;;;;;;;;;;;;21.58;66.31;97041.09;589692;239;68658;-69
2023/09/21 08:35:34;;;;;;;;;;;;;;;21.58;66.52;97046.44;589617;240;63645;-68
2023/09/21 08:38:02;;;;;;;;;;;;;;;21.59;66.66;97045.39;589657;240;64927;-68
2023/09/21 08:40:30;;;;;;;;;;;;;;;21.59;66.92;97038.16;590879;240;68629;-68
2023/09/21 08:42:59;;;;;;;;;;;;;;;21.61;66.45;97045.92;590940;240;66234;-68
2023/09/21 08:45:26;;;;;;;;;;;;;;;21.61;66.48;97043.25;590898;240;64896;-68
2023/09/21 08:47:56;;;;;;;;;;;;;;;21.61;66.34;97040.58;590928;240;68794;-68
2023/09/21 08:50:25;;;;;;;;;;;;;;;21.61;67.20;97041.37;590865;240;68855;-68
2023/09/21 08:52:54;;;;;;;;;;;;;;;21.61;67.55;97041.37;590915;240;65161;-68
2023/09/21 08:55:23;;;;;;;;;;;;;;;21.61;67.08;97038.69;590939;240;68756;-68
2023/09/21 08:57:52;;;;;;;;;;;;;;;21.60;66.91;97039.75;590926;240;68710;-69
2023/09/21 09:00:21;;;;;;;;;;;;;;;21.62;66.86;97042.16;590425;240;65104;-70
2023/09/21 09:02:49;;;;;;;;;;;;;;;21.62;66.93;97031.47;590750;240;66720;-69
2023/09/21 09:05:18;;;;;;;;;;;;;;;21.61;65.44;97036.02;590682;240;66229;-69
2023/09/21 09:07:46;;;;;;;;;;;;;;;21.64;69.99;97037.34;590238;240;63105;-69
2023/09/21 09:10:15;;;;;;;;;;;;;;;21.63;69.75;97035.73;590722;240;65956;-69
2023/09/21 09:12:43;;;;;;;;;;;;;;;21.62;70.96;97042.95;587474;240;68530;-69
2023/09/21 09:15:11;;;;;;;;;;;;;;;21.61;70.13;97040.58;590436;240;62645;-69
2023/09/21 09:17:40;;;;;;;;;;;;;;;21.59;70.37;97038.16;590904;240;68700;-70
2023/09/21 09:20:08;;;;;;;;;;;;;;;21.59;70.52;97040.83;590847;240;68475;-70
2023/09/21 09:22:35;;;;;;;;;;;;;;;21.59;70.45;97043.51;590503;240;63088;-70
2023/09/21 09:25:09;;;;;;;;;;;;;;;21.59;70.52;97038.16;590829;240;68716;-67
2023/09/21 09:27:36;;;;;;;;;;;;;;;21.58;70.78;97041.92;590447;240;66633;-67
2023/09/21 09:30:08;;;;;;;;;;;;;;;21.59;70.78;97040.04;590217;240;62898;-69
2023/09/21 09:32:41;;;;;;;;;;;;;;;21.58;70.82;97044.59;590746;239;66731;-68
2023/09/21 09:35:13;;;;;;;;;;;;;;;21.58;70.93;97039.25;590894;240;66603;-68
2023/09/21 09:37:42;;;;;;;;;;;;;;;21.58;71.01;97039.25;590972;240;65539;-68
2023/09/21 09:40:12;;;;;;;;;;;;;;;21.58;70.97;97035.75;591309;240;68888;-69
2023/09/21 09:42:40;;;;;;;;;;;;;;;21.57;71.15;97034.95;590920;240;68595;-68
2023/09/21 09:45:10;;;;;;;;;;;;;;;21.57;70.95;97034.16;590847;240;63059;-69
2023/09/21 09:47:40;;;;;;;;;;;;;;;21.57;71.01;97032.28;590844;240;68862;-67
2023/09/21 09:50:09;;;;;;;;;;;;;;;21.57;71.14;97034.95;591164;240;68689;-70
2023/09/21 09:52:40;;;;;;;;;;;;;;;21.57;71.16;97034.16;590685;240;65118;-69
2023/09/21 09:55:12;;;;;;;;;;;;;;;21.57;71.18;97032.28;591139;240;68803;-68
2023/09/21 09:57:37;;;;;;;;;;;;;;;21.57;71.34;97028.81;590441;240;68469;-69
2023/09/21 10:00:20;;;;;;;;;;;;;;;21.57;71.36;97029.61;591116;240;65098;-68
2023/09/21 10:02:36;;;;;;;;;;;;;;;21.57;71.49;97023.46;590117;239;67908;-68
2023/09/21 10:05:04;;;;;;;;;;;;;;;21.58;71.71;97019.70;590891;240;68857;-69
2023/09/21 10:07:31;;;;;;;;;;;;;;;21.57;71.77;97021.58;591278;240;64940;-69
2023/09/21 10:09:59;;;;;;;;;;;;;;;21.57;71.75;97023.46;591267;240;66421;-67
2023/09/21 10:12:29;;;;;;;;;;;;;;;21.57;71.11;97026.93;591156;240;68648;-68
2023/09/21 10:14:56;;;;;;;;;;;;;;;21.58;70.89;97025.05;590353;240;64891;-69
2023/09/21 10:17:27;;;;;;;;;;;;;;;21.58;71.40;97025.05;591071;240;69013;-69
2023/09/21 10:19:55;;;;;;;;;;;;;;;21.58;71.44;97017.03;591008;239;68387;-69
2023/09/21 10:22:24;;;;;;;;;;;;;;;21.58;71.60;97020.52;590276;240;65127;-69
2023/09/21 10:24:53;;;;;;;;;;;;;;;21.58;71.71;97015.18;590931;240;69395;-69
2023/09/21 10:27:24;;;;;;;;;;;;;;;21.58;71.74;97009.00;591261;240;66268;-69
2023/09/21 10:29:54;;;;;;;;;;;;;;;21.58;71.05;97003.66;591153;240;63014;-70
2023/09/21 10:32:28;;;;;;;;;;;;;;;21.57;70.36;96997.52;587677;239;68798;-69
2023/09/21 10:34:52;;;;;;;;;;;;;;;21.58;70.48;96996.46;586347;242;66137;-70
2023/09/21 10:37:22;;;;;;;;;;;;;;;21.58;70.42;97004.48;586631;242;64863;-70
2023/09/21 10:39:51;;;;;;;;;;;;;;;21.58;71.00;97004.48;586413;242;68562;-70
2023/09/21 10:42:20;;;;;;;;;;;;;;;21.59;71.54;97002.60;586480;241;66131;-70
2023/09/21 10:45:00;;;;;;;;;;;;;;;21.58;71.62;96999.13;586653;242;63080;-70
2023/09/21 10:47:31;;;;;;;;;;;;;;;21.58;71.43;96996.46;586580;242;68373;-70
2023/09/21 10:50:00;;;;;;;;;;;;;;;21.58;71.10;96988.44;586687;241;71121;-70
2023/09/21 10:52:28;;;;;;;;;;;;;;;21.59;71.04;96989.23;586131;242;64932;-70
2023/09/21 10:54:56;;;;;;;;;;;;;;;21.60;70.47;96990.82;586689;242;66044;-70
2023/09/21 10:57:24;;;;;;;;;;;;;;;21.60;71.08;96991.61;586237;242;68264;-70
2023/09/21 10:59:52;;;;;;;;;;;;;;;21.59;71.43;96990.03;586735;242;64923;-70
2023/09/21 11:02:21;;;;;;;;;;;;;;;21.59;71.26;96990.03;586277;242;68376;-71
2023/09/21 11:04:49;;;;;;;;;;;;;;;21.61;71.57;96992.44;586196;242;66477;-71
2023/09/21 11:07:17;;;;;;;;;;;;;;;21.59;71.78;96984.67;585861;242;62753;-69
2023/09/21 11:09:45;;;;;;;;;;;;;;;21.59;71.46;96976.66;586286;242;68347;-69
2023/09/21 11:12:17;;;;;;;;;;;;;;;21.60;70.73;96982.80;586253;242;69002;-69
2023/09/21 11:14:47;;;;;;;;;;;;;;;21.60;70.77;96972.09;586372;242;65128;-69
2023/09/21 11:17:18;;;;;;;;;;;;;;;21.61;70.76;96971.05;586130;242;66314;-70
2023/09/21 11:19:47;;;;;;;;;;;;;;;21.61;70.99;96968.37;586011;242;68702;-70
2023/09/21 11:22:15;;;;;;;;;;;;;;;21.61;71.43;96976.39;586177;242;65312;-70
2023/09/21 11:24:43;;;;;;;;;;;;;;;21.61;71.07;96981.74;586335;242;66303;-69
2023/09/21 11:27:11;;;;;;;;;;;;;;;21.61;71.02;96971.05;586250;242;68377;-70
2023/09/21 11:29:40;;;;;;;;;;;;;;;21.61;71.13;96971.05;586422;242;63151;-70
2023/09/21 11:32:09;;;;;;;;;;;;;;;21.61;70.27;96968.37;593055;236;68664;-70
2023/09/21 11:34:39;;;;;;;;;;;;;;;21.61;70.00;96973.72;597467;237;66243;-69
2023/09/21 11:37:08;;;;;;;;;;;;;;;21.62;69.96;96968.08;597540;237;67422;-69
2023/09/21 11:39:39;;;;;;;;;;;;;;;21.62;69.74;96975.30;597538;237;68464;-70
2023/09/21 11:42:08;;;;;;;;;;;;;;;21.62;69.38;96967.28;597556;237;68417;-70
2023/09/21 11:44:37;;;;;;;;;;;;;;;21.63;69.20;96968.88;597540;237;63024;-69
2023/09/21 11:47:11;;;;;;;;;;;;;;;21.63;68.57;96958.17;597496;237;68848;-70
2023/09/21 11:49:42;;;;;;;;;;;;;;;21.64;68.33;96962.47;597529;237;66814;-70
2023/09/21 11:52:11;;;;;;;;;;;;;;;21.63;68.32;96952.83;597501;237;65500;-70
2023/09/21 11:54:39;;;;;;;;;;;;;;;21.63;68.47;96958.97;597515;237;68500;-70
2023/09/21 11:57:09;;;;;;;;;;;;;;;21.64;68.45;96951.77;597425;237;66456;-69
2023/09/21 11:59:39;;;;;;;;;;;;;;;21.63;68.33;96953.62;597549;237;62720;-71
2023/09/21 12:02:16;;;;;;;;;;;;;;;21.65;68.49;96950.68;597522;237;66892;-69
2023/09/21 12:04:41;;;;;;;;;;;;;;;21.65;67.95;96945.33;597301;237;68445;-68
2023/09/21 12:07:09;;;;;;;;;;;;;;;21.65;67.92;96946.13;597529;237;65082;-69
2023/09/21 12:09:40;;;;;;;;;;;;;;;21.64;68.39;96938.40;597514;237;65813;-68
2023/09/21 12:12:07;;;;;;;;;;;;;;;21.65;67.55;96939.98;597518;237;66447;-69
2023/09/21 12:14:35;;;;;;;;;;;;;;;21.65;67.05;96934.64;597428;237;65908;-68
2023/09/21 12:17:09;;;;;;;;;;;;;;;21.65;67.08;96948.80;597431;237;66404;-69
2023/09/21 12:19:34;;;;;;;;;;;;;;;21.66;66.83;96941.57;597420;237;66624;-69
2023/09/21 12:22:02;;;;;;;;;;;;;;;21.66;67.03;96945.07;597497;237;63735;-69
2023/09/21 12:24:30;;;;;;;;;;;;;;;21.66;66.96;96939.72;597475;237;68335;-69
2023/09/21 12:26:58;;;;;;;;;;;;;;;21.66;66.86;96942.39;597551;237;68346;-69
2023/09/21 12:29:26;;;;;;;;;;;;;;;21.66;67.00;96938.90;597542;237;64854;-66
2023/09/21 12:31:54;;;;;;;;;;;;;;;21.67;67.05;96945.86;597440;237;68322;-66
2023/09/21 12:34:21;;;;;;;;;;;;;;;21.67;67.35;96949.33;597507;237;66473;-66
2023/09/21 12:36:49;;;;;;;;;;;;;;;21.67;67.18;96937.84;597555;237;65253;-66
2023/09/21 12:39:18;;;;;;;;;;;;;;;21.68;66.93;96942.10;597526;237;68400;-66
2023/09/21 12:41:46;;;;;;;;;;;;;;;21.68;66.67;96939.42;597550;237;66502;-66
2023/09/21 12:44:13;;;;;;;;;;;;;;;21.67;66.74;96938.63;597394;237;65224;-66
2023/09/21 12:46:41;;;;;;;;;;;;;;;21.68;66.60;96934.87;597458;237;68501;-66
2023/09/21 12:49:08;;;;;;;;;;;;;;;21.69;66.51;96935.70;597526;237;66347;-66
2023/09/21 12:51:36;;;;;;;;;;;;;;;21.68;66.75;96929.52;596034;237;62691;-66
2023/09/21 12:54:07;;;;;;;;;;;;;;;21.69;66.62;96930.34;594848;238;66128;-67